createdAt,value
2018-09-18T05:36:10.000Z,52.543
2018-09-18T05:46:10.000Z,53.541
2018-09-18T05:56:10.000Z,53.696
2018-09-18T06:06:10.000Z,53.736
2018-09-18T06:16:10.000Z,53.659
2018-09-18T06:26:10.000Z,53.466
2018-09-18T06:36:10.000Z,53.373
2018-09-18T06:46:10.000Z,53.275
2018-09-18T06:56:10.000Z,53.071
2018-09-18T07:06:10.000Z,53.632
2018-09-18T07:16:10.000Z,54.066
2018-09-18T07:26:10.000Z,53.981
2018-09-18T07:36:10.000Z,53.766
2018-09-18T07:46:10.000Z,53.346
2018-09-18T08:06:10.000Z,52.374
2018-09-18T08:16:10.000Z,51.428
2018-09-18T08:26:10.000Z,50.472
2018-09-18T08:36:10.000Z,49.5
2018-09-18T08:46:10.000Z,49.177
2018-09-18T08:56:10.000Z,49.128
2018-09-18T09:06:10.000Z,48.504
2018-09-18T09:16:10.000Z,47.725
2018-09-18T09:26:10.000Z,47.076
2018-09-18T09:36:10.000Z,47.305
2018-09-18T09:46:10.000Z,47.014
2018-09-18T09:56:10.000Z,46.082
2018-09-18T10:06:10.000Z,45.702
2018-09-18T10:16:10.000Z,45.037
2018-09-18T10:26:11.000Z,44.698
2018-09-18T10:36:11.000Z,44.689
2018-09-18T10:46:11.000Z,44.059
2018-09-18T10:56:11.000Z,43.816
2018-09-18T11:06:11.000Z,43.807
2018-09-18T11:16:11.000Z,43.652
2018-09-18T11:26:11.000Z,43.583
2018-09-18T11:36:11.000Z,43.837
2018-09-18T11:46:11.000Z,43.77
2018-09-18T11:56:11.000Z,43.851
2018-09-18T12:06:11.000Z,43.659
2018-09-18T12:16:11.000Z,43.428
2018-09-18T12:26:11.000Z,42.943
2018-09-18T12:36:11.000Z,42.146
2018-09-18T12:46:11.000Z,41.893
2018-09-18T12:56:11.000Z,41.72
2018-09-18T13:06:11.000Z,41.304
2018-09-18T13:16:11.000Z,41.554
2018-09-18T13:26:11.000Z,41.226
2018-09-18T13:36:11.000Z,41.213
2018-09-18T13:46:11.000Z,41.111
2018-09-18T13:56:11.000Z,41.042
2018-09-18T14:06:11.000Z,40.916
2018-09-18T14:16:11.000Z,40.096
2018-09-18T14:26:11.000Z,39.665
2018-09-18T14:36:11.000Z,39.249
2018-09-18T14:46:11.000Z,38.528
2018-09-18T14:56:11.000Z,38.668
2018-09-18T15:06:11.000Z,38.426
2018-09-18T15:16:11.000Z,38.018
2018-09-18T15:26:11.000Z,37.845
2018-09-18T15:36:11.000Z,37.909
2018-09-18T15:46:11.000Z,37.881
2018-09-18T15:56:11.000Z,38.179
2018-09-18T16:06:11.000Z,38.375
2018-09-18T16:16:11.000Z,38.491
2018-09-18T16:26:11.000Z,38.632
2018-09-18T16:36:11.000Z,38.65
2018-09-18T16:46:11.000Z,38.788
2018-09-18T16:56:11.000Z,38.865
2018-09-18T17:06:12.000Z,38.986
2018-09-18T17:16:11.000Z,39.028
2018-09-18T17:26:11.000Z,38.991
2018-09-18T17:36:11.000Z,38.886
2018-09-18T17:46:11.000Z,38.805
2018-09-18T17:56:11.000Z,38.846
2018-09-18T18:06:11.000Z,38.657
2018-09-18T18:16:11.000Z,38.586
2018-09-18T18:26:11.000Z,38.307
2018-09-18T18:36:11.000Z,38.47
2018-09-18T18:46:12.000Z,38.623
2018-09-18T18:56:12.000Z,38.928
2018-09-18T19:06:12.000Z,39.049
2018-09-18T19:16:12.000Z,39.235
2018-09-18T19:26:12.000Z,39.487
2018-09-18T19:36:12.000Z,40.034
2018-09-18T19:46:12.000Z,40.275
2018-09-18T19:56:12.000Z,40.571
2018-09-18T20:06:12.000Z,40.843
2018-09-18T20:16:12.000Z,41.061
2018-09-18T20:26:12.000Z,41.333
2018-09-18T20:36:12.000Z,41.344
2018-09-18T20:46:12.000Z,42.419
2018-09-18T20:56:12.000Z,42.628
2018-09-18T21:06:12.000Z,42.584
2018-09-18T21:16:12.000Z,42.52
2018-09-18T21:26:12.000Z,42.77
2018-09-18T21:36:12.000Z,43.176
2018-09-18T21:46:12.000Z,43.995
2018-09-18T21:56:12.000Z,44.257
2018-09-18T22:06:12.000Z,44.662
2018-09-18T22:16:12.000Z,44.251
2018-09-18T22:26:12.000Z,44.337
2018-09-18T22:36:12.000Z,44.456
2018-09-18T22:46:12.000Z,44.498
2018-09-18T22:56:12.000Z,44.658
2018-09-18T23:06:12.000Z,44.666
2018-09-18T23:16:12.000Z,44.751
2018-09-18T23:26:12.000Z,44.782
2018-09-18T23:36:12.000Z,44.865
2018-09-18T23:46:12.000Z,44.97
2018-09-18T23:56:12.000Z,44.948
